createdAt,value
2022-09-24T00:01:20.391Z,12.35
2022-09-24T00:04:12.665Z,12.73
2022-09-24T00:07:02.869Z,13.25
2022-09-24T00:09:53.041Z,12.98
2022-09-24T00:12:43.016Z,13.02
2022-09-24T00:15:37.858Z,13.73
2022-09-24T00:18:29.121Z,12.77
2022-09-24T00:21:25.187Z,13.05
2022-09-24T00:24:36.335Z,13.93
2022-09-24T00:27:27.511Z,12.32
2022-09-24T00:30:17.720Z,12.77
2022-09-24T00:33:08.169Z,12.65
2022-09-24T00:36:00.910Z,13.13
2022-09-24T00:38:52.983Z,13.13
2022-09-24T00:41:45.317Z,12.77
2022-09-24T00:44:50.770Z,12.35
2022-09-24T00:47:42.789Z,12.57
2022-09-24T00:50:34.756Z,12.63
2022-09-24T00:53:29.108Z,13.02
2022-09-24T00:59:15.108Z,12.35
2022-09-24T01:02:05.249Z,13.02
2022-09-24T01:04:56.630Z,12.02
2022-09-24T01:07:49.640Z,11.68
2022-09-24T01:11:07.228Z,12.25
2022-09-24T01:14:10.640Z,12.15
2022-09-24T01:17:13.074Z,11.70
2022-09-24T01:20:36.424Z,12.60
2022-09-24T01:23:35.782Z,11.98
2022-09-24T01:26:48.029Z,11.82
2022-09-24T01:30:05.555Z,11.32
2022-09-24T01:33:01.012Z,12.20
2022-09-24T01:35:55.963Z,11.85
2022-09-24T01:38:49.907Z,12.15
2022-09-24T01:41:43.020Z,11.05
2022-09-24T01:44:34.771Z,11.53
2022-09-24T01:47:40.145Z,11.70
2022-09-24T01:50:36.094Z,11.50
2022-09-24T01:53:34.801Z,11.20
2022-09-24T01:56:38.320Z,11.20
2022-09-24T01:59:42.284Z,11.70
2022-09-24T02:02:48.242Z,11.85
2022-09-24T02:05:44.194Z,11.15
2022-09-24T02:08:39.780Z,11.73
2022-09-24T02:11:32.444Z,10.70
2022-09-24T02:14:24.096Z,12.02
2022-09-24T02:17:15.135Z,11.38
2022-09-24T02:20:11.846Z,11.20
2022-09-24T02:23:04.521Z,11.40
2022-09-24T02:25:59.652Z,12.05
2022-09-24T02:28:49.786Z,11.88
2022-09-24T02:31:47.622Z,11.05
2022-09-24T02:34:48.793Z,11.48
2022-09-24T02:37:42.542Z,11.07
2022-09-24T02:40:34.267Z,11.88
2022-09-24T02:43:25.959Z,11.35
2022-09-24T02:46:16.217Z,12.65
2022-09-24T02:49:06.738Z,11.98
2022-09-24T02:51:56.881Z,11.77
2022-09-24T02:54:46.772Z,12.00
2022-09-24T02:57:37.023Z,11.98
2022-09-24T03:00:27.066Z,11.82
2022-09-24T03:03:17.175Z,12.10
2022-09-24T03:06:07.847Z,11.45
2022-09-24T03:08:58.047Z,11.50
2022-09-24T03:11:48.196Z,11.65
2022-09-24T03:14:38.519Z,11.10
2022-09-24T03:17:28.996Z,12.10
2022-09-24T03:20:18.907Z,11.98
2022-09-24T03:23:08.898Z,12.48
2022-09-24T03:25:59.175Z,12.70
2022-09-24T03:28:49.497Z,12.52
2022-09-24T03:31:39.314Z,12.40
2022-09-24T03:34:29.269Z,12.52
2022-09-24T03:37:19.779Z,11.98
2022-09-24T03:40:10.125Z,12.80
2022-09-24T03:43:00.480Z,13.20
2022-09-24T03:45:50.519Z,13.55
2022-09-24T03:48:41.101Z,12.68
2022-09-24T03:51:31.477Z,13.40
2022-09-24T03:54:21.632Z,12.82
2022-09-24T03:57:14.791Z,13.05
2022-09-24T04:00:05.353Z,12.40
2022-09-24T04:02:56.581Z,13.65
2022-09-24T04:05:47.931Z,13.27
2022-09-24T04:08:37.789Z,12.57
2022-09-24T04:11:27.620Z,13.32
2022-09-24T04:14:18.051Z,12.93
2022-09-24T04:17:09.588Z,12.25
2022-09-24T04:19:59.665Z,12.65
2022-09-24T04:22:50.526Z,11.85
2022-09-24T04:25:40.625Z,11.93
2022-09-24T04:28:31.222Z,11.05
2022-09-24T04:31:21.417Z,10.68
2022-09-24T04:34:12.050Z,11.18
2022-09-24T04:37:02.276Z,10.77
2022-09-24T04:39:52.169Z,11.18
2022-09-24T04:42:44.850Z,11.23
2022-09-24T04:45:34.905Z,11.50
2022-09-24T04:48:25.392Z,11.27
2022-09-24T04:51:17.645Z,11.20
2022-09-24T04:54:09.334Z,11.75
2022-09-24T04:56:59.209Z,11.27
2022-09-24T04:59:49.016Z,11.27
2022-09-24T05:02:39.323Z,10.98
2022-09-24T05:05:30.070Z,11.52
2022-09-24T05:08:19.966Z,11.23
2022-09-24T05:11:09.887Z,11.75
2022-09-24T05:13:59.854Z,11.20
2022-09-24T05:16:50.075Z,11.48
2022-09-24T05:19:39.928Z,11.48
2022-09-24T05:22:31.586Z,11.70
2022-09-24T05:25:22.879Z,11.25
2022-09-24T05:28:12.885Z,11.05
2022-09-24T05:31:02.877Z,10.73
2022-09-24T05:33:52.942Z,10.25
2022-09-24T05:36:43.338Z,11.75
2022-09-24T05:39:36.693Z,11.93
2022-09-24T05:42:26.910Z,10.85
2022-09-24T05:45:17.905Z,10.65
2022-09-24T05:48:08.157Z,10.68
2022-09-24T05:51:01.046Z,11.23
2022-09-24T05:53:51.360Z,11.00
2022-09-24T05:56:41.916Z,11.73
2022-09-24T05:59:32.250Z,11.10
2022-09-24T06:02:22.287Z,10.65
2022-09-24T06:05:13.294Z,11.73
2022-09-24T06:08:04.335Z,11.13
2022-09-24T06:10:58.978Z,12.07
2022-09-24T06:13:49.655Z,11.98
2022-09-24T06:16:40.133Z,11.98
2022-09-24T06:19:30.374Z,11.98
2022-09-24T06:22:25.012Z,12.20
2022-09-24T06:25:17.791Z,11.93
2022-09-24T06:28:08.812Z,11.80
2022-09-24T06:31:00.318Z,11.02
2022-09-24T06:33:50.472Z,12.25
2022-09-24T06:36:40.298Z,11.82
2022-09-24T06:39:30.081Z,11.93
2022-09-24T06:42:20.739Z,11.80
2022-09-24T06:45:11.601Z,12.38
2022-09-24T06:48:03.636Z,11.65
2022-09-24T06:50:54.733Z,12.48
2022-09-24T06:53:44.760Z,13.13
2022-09-24T06:56:34.632Z,12.63
2022-09-24T06:59:24.574Z,12.50
2022-09-24T07:02:14.690Z,11.82
2022-09-24T07:05:05.584Z,12.27
2022-09-24T07:07:55.629Z,12.43
2022-09-24T07:10:48.967Z,12.38
2022-09-24T07:13:38.817Z,11.60
2022-09-24T07:16:28.719Z,11.45
2022-09-24T07:19:19.050Z,11.90
2022-09-24T07:22:09.065Z,11.32
2022-09-24T07:24:59.140Z,12.32
2022-09-24T07:27:49.670Z,11.68
2022-09-24T07:30:40.335Z,13.45
2022-09-24T07:33:31.827Z,13.88
2022-09-24T07:36:23.231Z,12.38
2022-09-24T07:39:13.294Z,12.75
2022-09-24T07:42:04.944Z,11.95
2022-09-24T07:44:56.560Z,12.25
2022-09-24T07:47:46.357Z,12.23
2022-09-24T07:50:39.437Z,12.50
2022-09-24T07:53:29.483Z,13.47
2022-09-24T07:56:19.716Z,13.02
2022-09-24T07:59:11.201Z,12.50
2022-09-24T08:02:01.163Z,12.35
2022-09-24T08:04:51.341Z,13.43
2022-09-24T08:07:42.725Z,12.13
2022-09-24T08:10:32.770Z,12.85
2022-09-24T08:13:27.481Z,12.02
2022-09-24T08:16:21.163Z,13.77
2022-09-24T08:19:14.135Z,13.63
2022-09-24T08:22:05.276Z,13.23
2022-09-24T08:24:57.428Z,13.15
2022-09-24T08:27:47.541Z,13.73
2022-09-24T08:30:39.891Z,13.60
2022-09-24T08:33:32.740Z,13.05
2022-09-24T08:36:23.016Z,13.30
2022-09-24T08:39:15.173Z,13.05
2022-09-24T08:42:06.659Z,14.07
2022-09-24T08:45:17.195Z,12.90
2022-09-24T08:48:15.593Z,13.48
2022-09-24T08:51:11.858Z,13.60
2022-09-24T08:54:08.642Z,12.65
2022-09-24T08:57:02.854Z,14.63
2022-09-24T08:59:53.439Z,14.55
2022-09-24T09:03:01.530Z,13.43
2022-09-24T09:06:29.148Z,13.25
2022-09-24T09:09:41.503Z,12.73
2022-09-24T09:12:41.160Z,28.73
2022-09-24T09:15:40.494Z,57.47
2022-09-24T09:18:37.475Z,13.43
2022-09-24T09:21:43.789Z,12.98
2022-09-24T09:24:50.777Z,12.60
2022-09-24T09:27:40.476Z,12.55
2022-09-24T09:30:43.663Z,12.68
2022-09-24T09:34:01.186Z,13.02
2022-09-24T09:37:25.979Z,12.52
2022-09-24T09:40:41.607Z,11.57
2022-09-24T09:43:32.548Z,11.85
2022-09-24T09:46:37.990Z,11.65
2022-09-24T09:49:35.439Z,11.35
2022-09-24T09:52:30.060Z,10.80
2022-09-24T09:55:26.795Z,10.95
2022-09-24T09:58:24.442Z,11.60
2022-09-24T10:01:18.610Z,11.73
2022-09-24T10:04:41.137Z,12.02
2022-09-24T10:07:31.684Z,12.10
2022-09-24T10:10:24.391Z,12.18
2022-09-24T10:13:14.549Z,12.20
2022-09-24T10:16:08.736Z,12.60
2022-09-24T10:21:50.533Z,12.30
2022-09-24T10:24:43.384Z,11.45
2022-09-24T10:27:36.254Z,11.98
2022-09-24T10:30:35.239Z,10.68
2022-09-24T10:33:25.923Z,10.48
2022-09-24T10:36:26.820Z,10.88
2022-09-24T10:39:16.862Z,9.82
2022-09-24T10:42:22.830Z,9.63
2022-09-24T10:45:15.821Z,10.02
2022-09-24T10:48:26.405Z,9.30
2022-09-24T10:51:16.508Z,8.90
2022-09-24T10:54:35.263Z,8.90
2022-09-24T10:57:39.692Z,9.75
2022-09-24T11:03:46.918Z,8.93
2022-09-24T11:06:53.576Z,9.15
2022-09-24T11:10:13.031Z,9.15
2022-09-24T11:13:20.770Z,9.10
2022-09-24T11:16:23.587Z,9.80
2022-09-24T11:19:32.866Z,10.30
2022-09-24T11:22:32.226Z,10.75
2022-09-24T11:25:31.693Z,11.10
2022-09-24T11:28:56.597Z,10.93
2022-09-24T11:32:08.491Z,10.27
2022-09-24T11:35:36.663Z,9.75
2022-09-24T11:38:27.352Z,10.25
2022-09-24T11:41:33.022Z,9.90
2022-09-24T11:44:41.481Z,10.75
2022-09-24T11:47:54.915Z,9.95
2022-09-24T11:50:52.741Z,10.00
2022-09-24T11:53:51.259Z,9.68
2022-09-24T11:56:47.337Z,9.52
2022-09-24T11:59:51.347Z,9.18
2022-09-24T12:02:47.680Z,9.38
2022-09-24T12:05:44.839Z,8.95
2022-09-24T12:08:52.303Z,12.10
2022-09-24T12:11:49.930Z,7.53
2022-09-24T12:15:05.090Z,6.38
2022-09-24T12:18:01.110Z,6.28
2022-09-24T12:20:56.781Z,5.32
2022-09-24T12:23:51.328Z,5.85
2022-09-24T12:26:42.819Z,7.53
2022-09-24T12:30:19.280Z,5.88
2022-09-24T12:33:12.126Z,5.68
2022-09-24T12:36:17.810Z,5.72
2022-09-24T12:39:18.018Z,5.82
2022-09-24T12:42:11.138Z,5.75
2022-09-24T12:45:03.027Z,5.88
2022-09-24T12:47:57.881Z,9.77
2022-09-24T12:50:59.051Z,9.00
2022-09-24T12:54:28.687Z,10.82
2022-09-24T12:57:26.160Z,11.20
2022-09-24T13:00:32.204Z,10.93
2022-09-24T13:03:46.890Z,12.10
2022-09-24T13:06:37.928Z,12.93
2022-09-24T13:09:40.148Z,13.45
2022-09-24T13:12:33.204Z,13.20
2022-09-24T13:15:35.960Z,13.57
2022-09-24T13:18:26.278Z,13.27
2022-09-24T13:21:24.179Z,13.55
2022-09-24T13:24:37.262Z,13.13
2022-09-24T13:27:30.141Z,13.65
2022-09-24T13:30:22.835Z,14.40
2022-09-24T13:33:23.949Z,14.32
2022-09-24T13:36:36.757Z,15.07
2022-09-24T13:39:36.704Z,14.52
2022-09-24T13:42:48.948Z,13.75
2022-09-24T13:45:42.507Z,15.70
2022-09-24T13:51:29.911Z,12.05
2022-09-24T13:57:26.540Z,10.75
2022-09-24T14:00:21.043Z,12.50
2022-09-24T14:03:28.688Z,12.23
2022-09-24T14:06:23.263Z,12.50
2022-09-24T14:12:23.812Z,12.85
2022-09-24T14:15:17.618Z,12.27
2022-09-24T14:18:17.167Z,12.30
2022-09-24T14:21:16.337Z,10.02
2022-09-24T14:24:17.501Z,9.65
2022-09-24T14:27:12.972Z,11.55
2022-09-24T14:30:08.505Z,9.52
2022-09-24T14:33:03.292Z,9.15
2022-09-24T14:35:56.240Z,8.32
2022-09-24T14:39:06.587Z,7.35
2022-09-24T14:41:58.255Z,6.50
2022-09-24T14:44:49.024Z,6.00
2022-09-24T14:47:39.463Z,6.30
2022-09-24T14:50:35.406Z,6.50
2022-09-24T14:53:35.997Z,6.65
2022-09-24T14:56:32.353Z,6.32
2022-09-24T14:59:31.775Z,5.80
2022-09-24T15:02:29.578Z,6.57
2022-09-24T15:05:24.271Z,6.53
2022-09-24T15:08:23.995Z,6.72
2022-09-24T15:11:21.290Z,6.40
2022-09-24T15:14:19.172Z,6.35
2022-09-24T15:17:23.393Z,6.75
2022-09-24T15:20:13.611Z,6.60
2022-09-24T15:23:03.907Z,6.80
2022-09-24T15:25:54.231Z,6.65
2022-09-24T15:28:44.371Z,6.10
2022-09-24T15:31:34.913Z,6.50
2022-09-24T15:34:25.691Z,6.65
2022-09-24T15:37:20.082Z,6.53
2022-09-24T15:40:22.806Z,7.72
2022-09-24T15:43:18.967Z,6.53
2022-09-24T15:46:09.255Z,6.55
2022-09-24T15:48:59.551Z,8.10
2022-09-24T15:51:51.030Z,7.95
2022-09-24T15:54:41.908Z,6.95
2022-09-24T15:57:32.038Z,7.40
2022-09-24T16:00:24.073Z,7.35
2022-09-24T16:03:24.621Z,7.55
2022-09-24T16:06:14.485Z,7.63
2022-09-24T16:09:04.735Z,8.25
2022-09-24T16:11:55.350Z,7.57
2022-09-24T16:14:46.227Z,7.97
2022-09-24T16:17:36.192Z,7.72
2022-09-24T16:20:26.074Z,7.47
2022-09-24T16:23:17.327Z,7.80
2022-09-24T16:26:07.705Z,7.72
2022-09-24T16:28:58.287Z,6.85
2022-09-24T16:31:49.495Z,6.65
2022-09-24T16:34:40.724Z,6.93
2022-09-24T16:37:30.607Z,6.50
2022-09-24T16:40:20.681Z,6.25
2022-09-24T16:43:11.141Z,7.55
2022-09-24T16:46:05.370Z,7.53
2022-09-24T16:48:55.900Z,8.02
2022-09-24T16:51:46.152Z,8.43
2022-09-24T16:54:36.719Z,8.70
2022-09-24T16:57:26.874Z,9.63
2022-09-24T17:00:16.916Z,10.25
2022-09-24T17:03:09.330Z,9.82
2022-09-24T17:05:59.541Z,10.30
2022-09-24T17:09:08.864Z,10.30
2022-09-24T17:11:59.684Z,10.20
2022-09-24T17:14:49.831Z,10.70
2022-09-24T17:17:45.665Z,10.63
2022-09-24T17:20:39.355Z,11.55
2022-09-24T17:23:29.517Z,10.73
2022-09-24T17:26:21.627Z,11.05
2022-09-24T17:29:12.730Z,11.40
2022-09-24T17:32:03.007Z,10.93
2022-09-24T17:34:54.093Z,11.20
2022-09-24T17:37:45.320Z,11.00
2022-09-24T17:40:38.870Z,10.32
2022-09-24T17:43:29.329Z,11.23
2022-09-24T17:46:22.323Z,10.70
2022-09-24T17:49:12.786Z,11.23
2022-09-24T17:52:04.408Z,10.50
2022-09-24T17:54:54.313Z,10.63
2022-09-24T17:57:44.167Z,11.52
2022-09-24T18:00:33.974Z,13.57
2022-09-24T18:03:23.741Z,17.85
2022-09-24T18:06:15.130Z,17.13
2022-09-24T18:09:05.728Z,17.17
2022-09-24T18:11:56.752Z,16.85
2022-09-24T18:14:46.538Z,15.90
2022-09-24T18:17:36.346Z,16.30
2022-09-24T18:20:26.310Z,15.73
2022-09-24T18:23:16.788Z,15.30
2022-09-24T18:26:10.472Z,13.30
2022-09-24T18:29:08.136Z,12.60
2022-09-24T18:31:58.285Z,12.57
2022-09-24T18:34:48.201Z,11.57
2022-09-24T18:37:38.666Z,12.18
2022-09-24T18:40:29.020Z,12.73
2022-09-24T18:43:19.436Z,12.30
2022-09-24T18:46:11.524Z,12.45
2022-09-24T18:49:02.494Z,13.10
2022-09-24T18:51:52.540Z,12.90
2022-09-24T18:54:42.563Z,11.80
2022-09-24T18:57:32.433Z,12.68
2022-09-24T19:00:41.038Z,12.48
2022-09-24T19:03:31.923Z,12.93
2022-09-24T19:06:21.983Z,12.45
2022-09-24T19:09:13.885Z,13.50
2022-09-24T19:12:05.900Z,15.90
2022-09-24T19:14:57.588Z,15.55
2022-09-24T19:17:48.900Z,15.80
2022-09-24T19:20:45.426Z,15.75
2022-09-24T19:23:40.512Z,14.80
2022-09-24T19:26:32.700Z,14.70
2022-09-24T19:29:25.256Z,14.85
2022-09-24T19:32:15.602Z,15.10
2022-09-24T19:35:05.964Z,15.75
2022-09-24T19:37:55.966Z,16.17
2022-09-24T19:40:55.971Z,14.30
2022-09-24T19:43:46.542Z,14.75
2022-09-24T19:46:38.560Z,14.43
2022-09-24T19:49:29.066Z,15.00
2022-09-24T19:52:19.397Z,14.25
2022-09-24T19:55:10.155Z,14.07
2022-09-24T19:58:01.392Z,16.77
2022-09-24T20:00:52.522Z,16.08
2022-09-24T20:03:42.905Z,16.58
2022-09-24T20:06:34.280Z,15.50
2022-09-24T20:09:24.741Z,17.08
2022-09-24T20:12:18.278Z,14.95
2022-09-24T20:15:10.133Z,16.55
2022-09-24T20:18:00.175Z,16.02
2022-09-24T20:20:50.055Z,15.63
2022-09-24T20:23:40.653Z,17.55
2022-09-24T20:26:49.046Z,18.17
2022-09-24T20:29:39.330Z,18.05
2022-09-24T20:32:29.843Z,19.25
2022-09-24T20:35:20.801Z,18.70
2022-09-24T20:38:12.038Z,18.02
2022-09-24T20:41:06.710Z,17.23
2022-09-24T20:43:56.912Z,17.15
2022-09-24T20:46:47.137Z,17.25
2022-09-24T20:49:37.409Z,17.73
2022-09-24T20:52:27.484Z,17.85
2022-09-24T20:55:17.356Z,18.40
2022-09-24T20:58:07.345Z,20.38
2022-09-24T21:00:57.207Z,22.65
2022-09-24T21:03:50.589Z,25.15
2022-09-24T21:06:40.844Z,23.58
2022-09-24T21:09:31.168Z,25.45
2022-09-24T21:12:22.275Z,25.88
2022-09-24T21:15:13.304Z,26.33
2022-09-24T21:18:21.849Z,26.25
2022-09-24T21:21:16.099Z,26.60
2022-09-24T21:24:09.971Z,27.10
2022-09-24T21:27:00.339Z,26.25
2022-09-24T21:29:50.226Z,25.92
2022-09-24T21:32:42.042Z,26.90
2022-09-24T21:35:33.141Z,26.38
2022-09-24T21:38:23.150Z,25.15
2022-09-24T21:41:13.722Z,26.00
2022-09-24T21:44:05.965Z,24.35
2022-09-24T21:46:56.295Z,23.02
2022-09-24T21:49:47.980Z,22.73
2022-09-24T21:52:38.945Z,21.67
2022-09-24T21:55:30.390Z,19.25
2022-09-24T21:58:20.410Z,16.73
2022-09-24T22:01:36.988Z,16.63
2022-09-24T22:04:27.799Z,17.33
2022-09-24T22:07:18.140Z,17.48
2022-09-24T22:10:08.357Z,17.35
2022-09-24T22:12:58.272Z,16.95
2022-09-24T22:15:48.173Z,15.82
2022-09-24T22:18:38.634Z,17.10
2022-09-24T22:21:29.874Z,16.42
2022-09-24T22:24:20.210Z,17.15
2022-09-24T22:27:10.355Z,17.25
2022-09-24T22:30:00.593Z,17.35
2022-09-24T22:32:50.448Z,16.45
2022-09-24T22:35:49.784Z,17.00
2022-09-24T22:38:39.779Z,16.20
2022-09-24T22:41:30.504Z,15.85
2022-09-24T22:44:20.472Z,15.63
2022-09-24T22:47:10.299Z,16.45
2022-09-24T22:50:00.129Z,14.25
2022-09-24T22:52:51.532Z,15.48
2022-09-24T22:55:41.737Z,15.35
2022-09-24T22:58:32.502Z,14.30
2022-09-24T23:01:25.379Z,14.35
2022-09-24T23:04:15.478Z,14.98
2022-09-24T23:07:06.352Z,14.70
2022-09-24T23:09:56.449Z,13.35
2022-09-24T23:12:46.668Z,13.70
2022-09-24T23:15:36.786Z,12.80
2022-09-24T23:18:26.726Z,13.68
2022-09-24T23:21:19.457Z,13.75
2022-09-24T23:24:17.864Z,13.68
2022-09-24T23:27:08.062Z,12.75
2022-09-24T23:29:59.337Z,14.32
2022-09-24T23:32:49.606Z,15.18
2022-09-24T23:35:39.592Z,14.43
2022-09-24T23:38:29.822Z,13.95
2022-09-24T23:41:21.014Z,14.77
2022-09-24T23:44:11.025Z,14.75
2022-09-24T23:47:01.976Z,14.45
2022-09-24T23:49:52.275Z,14.30
2022-09-24T23:52:42.203Z,15.52
2022-09-24T23:55:32.620Z,14.68
2022-09-24T23:58:23.883Z,15.18
